Time;durP1;ratioP1;P1;durP2;ratioP2;P2;SDS_P1;SDS_P2;PMS_P1;PMS_P2;Temp;Humidity;BMP_temperature;BMP_pressure;BME280_temperature;BME280_humidity;BME280_pressure;Samples;Min_cycle;Max_cycle;Signal;HPM_P1;HPM_P2
2021/07/27 00:01:42;;;;;;;2.60;1.45;;;25.30;62.10;;;;;;5054629;28;20040;-57
2021/07/27 00:04:07;;;;;;;2.83;1.33;;;25.30;62.10;;;;;;5054762;28;20055;-57
2021/07/27 00:06:33;;;;;;;2.97;1.45;;;25.30;62.00;;;;;;5061701;28;20092;-58
2021/07/27 00:08:58;;;;;;;1.95;1.50;;;25.30;62.20;;;;;;5067804;28;20021;-58
2021/07/27 00:11:24;;;;;;;2.45;1.40;;;25.30;62.00;;;;;;5054409;28;20039;-58
2021/07/27 00:13:50;;;;;;;1.70;1.52;;;25.30;62.10;;;;;;5061269;28;20037;-58
2021/07/27 00:16:15;;;;;;;2.20;1.85;;;25.30;62.00;;;;;;5074362;28;20025;-58
2021/07/27 00:18:41;;;;;;;2.60;1.50;;;25.30;61.80;;;;;;5073897;28;20032;-58
2021/07/27 00:21:07;;;;;;;2.83;1.58;;;25.30;61.80;;;;;;5072900;28;20075;-57
2021/07/27 00:23:37;;;;;;;3.17;1.60;;;25.20;61.80;;;;;;5062960;28;20454;-57
2021/07/27 00:26:10;;;;;;;2.40;1.63;;;25.30;61.80;;;;;;5054081;28;20071;-57
2021/07/27 00:28:35;;;;;;;2.63;1.50;;;25.30;61.80;;;;;;5072759;28;20021;-58
2021/07/27 00:31:01;;;;;;;2.47;1.38;;;25.30;61.80;;;;;;5066509;28;20079;-57
2021/07/27 00:33:26;;;;;;;3.25;1.40;;;25.30;61.80;;;;;;5053380;28;20029;-57
2021/07/27 00:35:52;;;;;;;2.58;1.70;;;25.30;61.80;;;;;;5053346;28;20096;-57
2021/07/27 00:38:19;;;;;;;2.30;1.52;;;25.30;61.70;;;;;;5053252;28;20167;-58
2021/07/27 00:40:46;;;;;;;2.45;1.60;;;25.30;61.80;;;;;;5053127;28;20069;-57
2021/07/27 00:43:13;;;;;;;3.25;1.88;;;25.20;61.70;;;;;;5056104;28;20055;-56
2021/07/27 00:45:39;;;;;;;1.83;1.50;;;25.30;61.80;;;;;;5073148;28;20369;-57
2021/07/27 00:48:05;;;;;;;2.17;1.40;;;25.30;61.80;;;;;;5073782;28;20029;-57
2021/07/27 00:50:31;;;;;;;2.92;1.52;;;25.20;61.70;;;;;;5068278;28;20079;-57
2021/07/27 00:53:00;;;;;;;2.72;1.90;;;25.20;61.70;;;;;;5052854;28;20041;-57
2021/07/27 00:55:26;;;;;;;2.05;1.50;;;25.20;61.60;;;;;;5053569;28;20482;-57
2021/07/27 00:57:52;;;;;;;2.28;1.50;;;25.30;61.70;;;;;;5052943;28;20083;-57
2021/07/27 01:00:19;;;;;;;3.22;1.75;;;25.20;61.60;;;;;;5052899;28;20053;-57
2021/07/27 01:02:45;;;;;;;2.63;1.80;;;25.20;61.60;;;;;;5052820;28;20041;-57
2021/07/27 01:05:12;;;;;;;2.13;1.90;;;25.20;61.60;;;;;;5053825;28;20036;-57
2021/07/27 01:07:38;;;;;;;3.13;1.90;;;25.20;61.50;;;;;;5052874;28;20040;-57
2021/07/27 01:10:07;;;;;;;3.78;1.75;;;25.20;61.50;;;;;;5053907;28;20071;-57
2021/07/27 01:12:33;;;;;;;2.45;1.67;;;25.20;61.40;;;;;;5053221;28;20042;-57
2021/07/27 01:15:00;;;;;;;3.55;1.52;;;25.20;61.40;;;;;;5069938;28;20029;-57
2021/07/27 01:17:26;;;;;;;3.75;1.55;;;25.20;61.30;;;;;;5053811;28;20116;-57
2021/07/27 01:44:03;;;;;;;2.63;1.90;;;25.20;61.10;;;;;;5059411;28;20162;-57
2021/07/27 01:46:36;;;;;;;1.85;1.73;;;25.20;61.20;;;;;;5072777;28;20025;-57
2021/07/27 01:49:02;;;;;;;2.40;1.70;;;25.20;61.30;;;;;;5072223;28;20073;-58
2021/07/27 01:51:29;;;;;;;2.30;1.80;;;25.20;61.20;;;;;;5072453;28;20032;-57
2021/07/27 01:53:55;;;;;;;2.67;1.75;;;25.20;61.10;;;;;;5060070;28;20120;-57
2021/07/27 01:56:24;;;;;;;2.95;1.55;;;25.20;61.00;;;;;;5052757;28;20458;-57
2021/07/27 01:58:50;;;;;;;2.70;1.75;;;25.20;61.00;;;;;;5051387;28;20036;-57
2021/07/27 02:01:19;;;;;;;2.25;1.63;;;25.20;61.00;;;;;;5052747;28;20036;-57
2021/07/27 02:03:45;;;;;;;2.83;2.05;;;25.20;61.00;;;;;;5051381;28;20032;-57
2021/07/27 02:06:11;;;;;;;2.20;1.60;;;25.20;61.00;;;;;;5052797;28;20025;-58
2021/07/27 02:08:37;;;;;;;1.58;1.48;;;25.20;61.00;;;;;;5051884;28;20070;-58
2021/07/27 02:11:05;;;;;;;2.17;1.70;;;25.20;61.00;;;;;;5051944;28;20112;-58
2021/07/27 02:13:32;;;;;;;3.53;1.77;;;25.20;60.90;;;;;;5057031;28;20040;-57
2021/07/27 02:15:59;;;;;;;2.63;1.83;;;25.20;60.90;;;;;;5071690;28;20024;-57
2021/07/27 02:18:26;;;;;;;1.98;1.58;;;25.20;61.00;;;;;;5070770;28;20021;-57
2021/07/27 02:20:51;;;;;;;2.30;1.40;;;25.20;60.90;;;;;;5071370;28;20048;-57
2021/07/27 02:23:18;;;;;;;3.17;1.90;;;25.20;60.90;;;;;;5066202;28;20029;-57
2021/07/27 02:25:44;;;;;;;2.13;1.70;;;25.20;60.90;;;;;;5051674;28;20084;-57
2021/07/27 02:28:13;;;;;;;1.88;1.65;;;25.20;60.80;;;;;;5050554;28;20486;-57
2021/07/27 02:30:48;;;;;;;2.17;1.90;;;25.20;61.50;;;;;;5051935;28;20041;-58
2021/07/27 02:33:15;;;;;;;2.67;1.60;;;25.20;60.80;;;;;;5052207;28;20071;-57
2021/07/27 02:35:41;;;;;;;2.60;1.98;;;25.20;60.70;;;;;;5051295;28;20025;-58
2021/07/27 02:38:07;;;;;;;3.92;2.30;;;25.20;60.80;;;;;;5051924;28;20021;-57
2021/07/27 02:40:33;;;;;;;2.80;1.88;;;25.20;60.70;;;;;;5050674;28;20429;-57
2021/07/27 02:43:03;;;;;;;2.13;1.58;;;25.20;60.60;;;;;;5051447;28;20302;-57
2021/07/27 02:45:30;;;;;;;2.47;1.70;;;25.20;60.70;;;;;;5072077;28;20028;-58
2021/07/27 02:47:55;;;;;;;4.00;1.83;;;25.20;61.30;;;;;;5071259;28;20115;-58
2021/07/27 02:50:21;;;;;;;3.65;1.63;;;25.20;60.80;;;;;;5071746;28;20481;-58
2021/07/27 02:52:48;;;;;;;3.35;2.15;;;25.20;60.70;;;;;;5069403;28;20480;-57
2021/07/27 02:55:13;;;;;;;3.20;2.10;;;25.20;60.70;;;;;;5063932;28;20110;-57
2021/07/27 02:57:39;;;;;;;3.70;1.90;;;25.20;60.70;;;;;;5071575;28;20502;-58
2021/07/27 03:00:06;;;;;;;2.95;1.88;;;25.20;60.60;;;;;;5051459;28;20481;-57
2021/07/27 03:02:34;;;;;;;3.58;1.80;;;25.20;60.70;;;;;;5051545;28;20378;-57
2021/07/27 03:05:00;;;;;;;2.42;1.80;;;25.20;60.60;;;;;;5050228;28;20118;-57
2021/07/27 03:07:34;;;;;;;3.20;1.73;;;25.20;60.60;;;;;;5051838;28;20075;-57
2021/07/27 03:10:18;;;;;;;2.15;1.58;;;25.20;60.40;;;;;;5050841;28;20029;-57
2021/07/27 03:12:43;;;;;;;2.85;1.83;;;25.20;60.40;;;;;;5050476;28;20171;-58
2021/07/27 03:15:10;;;;;;;2.55;1.77;;;25.10;60.40;;;;;;5053345;28;20108;-58
2021/07/27 03:17:36;;;;;;;2.42;1.98;;;25.20;60.40;;;;;;5051525;28;20021;-57
2021/07/27 03:20:08;;;;;;;3.05;2.22;;;25.20;60.50;;;;;;5050412;28;20044;-57
2021/07/27 03:22:34;;;;;;;3.00;1.90;;;25.20;60.40;;;;;;5051433;28;20067;-57
2021/07/27 03:24:59;;;;;;;3.70;1.80;;;25.10;60.40;;;;;;5050451;28;20191;-58
2021/07/27 03:27:25;;;;;;;2.13;1.85;;;25.10;60.40;;;;;;5051638;28;20029;-57
2021/07/27 03:29:51;;;;;;;3.03;2.00;;;25.20;60.40;;;;;;5050524;28;20044;-57
2021/07/27 03:32:17;;;;;;;3.30;2.00;;;25.10;60.40;;;;;;5050183;28;20029;-57
2021/07/27 03:34:43;;;;;;;4.50;1.80;;;25.20;60.40;;;;;;5050061;28;20037;-57
2021/07/27 03:37:12;;;;;;;3.63;2.38;;;25.10;60.30;;;;;;5051840;28;20040;-57
2021/07/27 03:39:38;;;;;;;2.28;1.70;;;25.10;60.40;;;;;;5051410;28;20076;-57
2021/07/27 03:42:03;;;;;;;4.68;2.30;;;25.10;60.40;;;;;;5062104;28;20059;-58
2021/07/27 03:44:29;;;;;;;5.50;2.15;;;25.10;60.40;;;;;;5069384;28;20089;-58
2021/07/27 03:47:05;;;;;;;3.45;1.55;;;25.10;60.40;;;;;;5070608;28;20414;-58
2021/07/27 03:49:31;;;;;;;2.95;2.28;;;25.10;60.40;;;;;;5055972;28;20382;-57
2021/07/27 03:52:01;;;;;;;2.50;2.00;;;25.10;60.40;;;;;;5050182;28;20021;-58
2021/07/27 03:54:34;;;;;;;3.13;2.10;;;25.10;60.40;;;;;;5050792;28;20029;-57
2021/07/27 03:57:02;;;;;;;3.75;1.80;;;25.10;60.40;;;;;;5050756;28;20033;-58
2021/07/27 03:59:31;;;;;;;3.05;1.85;;;25.10;60.40;;;;;;5050579;28;20092;-58
2021/07/27 04:01:58;;;;;;;3.30;2.10;;;25.10;60.40;;;;;;5050353;28;20359;-58
2021/07/27 04:04:23;;;;;;;2.95;2.28;;;25.10;60.40;;;;;;5054486;28;20021;-58
2021/07/27 04:06:49;;;;;;;3.05;2.00;;;25.10;60.50;;;;;;5049412;28;20033;-58
2021/07/27 04:09:15;;;;;;;2.63;2.00;;;25.10;60.50;;;;;;5053479;28;20455;-57
2021/07/27 04:11:41;;;;;;;3.03;1.90;;;25.10;60.50;;;;;;5053030;28;20021;-58
2021/07/27 04:14:07;;;;;;;2.55;1.80;;;25.10;60.50;;;;;;5052896;28;20048;-58
2021/07/27 04:16:36;;;;;;;2.45;1.88;;;25.10;60.50;;;;;;5052918;28;20053;-58
2021/07/27 04:19:02;;;;;;;3.25;1.70;;;25.10;60.50;;;;;;5049747;28;20021;-57
2021/07/27 04:21:28;;;;;;;2.95;2.25;;;25.10;60.50;;;;;;5053169;28;20032;-57
2021/07/27 04:23:53;;;;;;;3.10;2.28;;;25.10;60.50;;;;;;5051700;28;20032;-57
2021/07/27 04:26:19;;;;;;;2.70;2.20;;;25.10;60.50;;;;;;5052692;28;20425;-58
2021/07/27 04:28:44;;;;;;;3.08;2.10;;;25.10;60.50;;;;;;5052038;28;20055;-57
2021/07/27 04:31:10;;;;;;;2.67;2.13;;;25.10;60.40;;;;;;5052986;28;20021;-58
2021/07/27 04:33:37;;;;;;;3.20;2.30;;;25.10;60.40;;;;;;5052860;28;20035;-58
2021/07/27 04:36:03;;;;;;;3.95;2.15;;;25.10;60.40;;;;;;5049755;28;20025;-58
2021/07/27 04:38:29;;;;;;;4.43;2.10;;;25.10;60.40;;;;;;5052797;28;20040;-57
2021/07/27 04:40:55;;;;;;;3.22;1.92;;;25.10;60.50;;;;;;5051637;28;20033;-58
2021/07/27 04:43:21;;;;;;;2.58;2.17;;;25.10;60.60;;;;;;5052795;28;20098;-58
2021/07/27 04:45:46;;;;;;;3.30;1.98;;;25.10;60.40;;;;;;5050883;28;20056;-57
2021/07/27 04:48:12;;;;;;;2.72;2.13;;;25.10;60.30;;;;;;5054108;28;20033;-58
2021/07/27 04:50:44;;;;;;;4.63;2.40;;;25.10;60.30;;;;;;5054058;28;20032;-57
2021/07/27 04:53:10;;;;;;;3.22;2.00;;;25.10;60.30;;;;;;5054330;28;20028;-58
2021/07/27 04:55:37;;;;;;;6.47;2.28;;;25.10;60.20;;;;;;5053828;28;20433;-58
2021/07/27 04:58:03;;;;;;;2.55;1.95;;;25.10;60.30;;;;;;5053127;28;20031;-57
2021/07/27 05:00:29;;;;;;;3.13;1.95;;;25.10;60.20;;;;;;5053639;28;20096;-56
2021/07/27 05:02:58;;;;;;;4.28;2.30;;;25.10;60.20;;;;;;5052763;28;20490;-58
2021/07/27 05:05:25;;;;;;;3.20;1.90;;;25.10;60.30;;;;;;5062584;28;20025;-57
2021/07/27 05:07:51;;;;;;;3.25;1.90;;;25.10;60.40;;;;;;5072920;28;20519;-57
2021/07/27 05:10:17;;;;;;;2.40;2.10;;;25.10;60.30;;;;;;5055582;28;20073;-57
2021/07/27 05:12:43;;;;;;;2.42;2.15;;;25.10;60.30;;;;;;5052672;28;20037;-57
2021/07/27 05:15:09;;;;;;;2.92;2.30;;;25.10;60.20;;;;;;5071469;28;20029;-57
2021/07/27 05:17:37;;;;;;;2.95;2.20;;;25.10;60.30;;;;;;5072078;28;20050;-56
2021/07/27 05:20:04;;;;;;;4.32;2.45;;;25.10;60.30;;;;;;5072668;28;20158;-57
2021/07/27 05:22:30;;;;;;;2.50;2.08;;;25.10;60.30;;;;;;5071439;28;20086;-58
2021/07/27 05:24:56;;;;;;;3.05;2.30;;;25.10;60.30;;;;;;5052224;28;20033;-57
2021/07/27 05:27:24;;;;;;;3.20;2.33;;;25.10;60.30;;;;;;5053224;28;20037;-57
2021/07/27 05:29:51;;;;;;;2.80;2.10;;;25.10;60.20;;;;;;5032397;28;20045;-57
2021/07/27 05:32:17;;;;;;;3.15;2.42;;;25.10;60.60;;;;;;5031945;28;20455;-57
2021/07/27 05:34:42;;;;;;;4.75;2.42;;;25.10;60.50;;;;;;5051978;28;20031;-57
2021/07/27 05:37:08;;;;;;;3.03;2.08;;;25.10;60.50;;;;;;5052596;28;20108;-57
2021/07/27 05:39:34;;;;;;;2.75;1.83;;;25.10;60.60;;;;;;5056053;28;20040;-57
2021/07/27 05:42:00;;;;;;;3.50;2.35;;;25.10;60.80;;;;;;5072257;28;20536;-58
2021/07/27 05:44:26;;;;;;;3.72;2.08;;;25.10;60.80;;;;;;5047715;28;20033;-57
2021/07/27 05:46:56;;;;;;;3.63;1.77;;;25.10;60.80;;;;;;5051616;28;20051;-57
2021/07/27 05:49:22;;;;;;;2.45;1.90;;;25.10;61.00;;;;;;5051429;28;20025;-57
2021/07/27 05:51:48;;;;;;;2.97;2.15;;;25.10;61.00;;;;;;5051523;28;20481;-57
2021/07/27 05:54:15;;;;;;;6.43;2.40;;;25.10;61.10;;;;;;5052495;28;20029;-58
2021/07/27 05:56:41;;;;;;;3.15;2.03;;;25.10;61.70;;;;;;5052779;28;20090;-58
2021/07/27 05:59:07;;;;;;;7.20;2.40;;;25.10;61.30;;;;;;5051616;28;21023;-58
2021/07/27 06:01:32;;;;;;;5.00;2.08;;;25.10;61.20;;;;;;5052398;28;20390;-54
2021/07/27 06:03:59;;;;;;;6.60;2.90;;;25.10;60.90;;;;;;5051498;28;20036;-58
2021/07/27 06:06:28;;;;;;;6.35;3.10;;;25.10;61.10;;;;;;5052536;28;20052;-55
2021/07/27 06:08:53;;;;;;;4.20;2.38;;;25.10;61.10;;;;;;5051631;28;20382;-55
2021/07/27 06:11:19;;;;;;;2.75;1.95;;;25.10;61.00;;;;;;5052613;28;20103;-53
2021/07/27 06:13:44;;;;;;;4.90;2.28;;;25.10;60.90;;;;;;5054004;28;20048;-65
2021/07/27 06:16:10;;;;;;;7.82;2.70;;;25.10;61.10;;;;;;5071744;28;20462;-59
2021/07/27 06:18:36;;;;;;;5.10;2.42;;;25.10;61.20;;;;;;5059317;28;20025;-59
2021/07/27 06:21:01;;;;;;;5.45;2.35;;;25.20;61.30;;;;;;5051299;28;20086;-60
2021/07/27 06:23:27;;;;;;;4.63;2.25;;;25.20;61.30;;;;;;5052090;28;20037;-60
2021/07/27 06:25:53;;;;;;;4.50;2.00;;;25.20;61.20;;;;;;5051635;28;20056;-60
2021/07/27 06:28:19;;;;;;;4.80;2.47;;;25.20;61.10;;;;;;5052204;28;20040;-60
2021/07/27 06:30:44;;;;;;;5.93;2.83;;;25.20;61.00;;;;;;5051435;28;20522;-60
2021/07/27 06:33:10;;;;;;;5.38;2.47;;;25.20;60.90;;;;;;5051233;28;20381;-60
2021/07/27 06:35:36;;;;;;;4.95;2.60;;;25.20;60.90;;;;;;5051964;28;20100;-60
2021/07/27 06:38:01;;;;;;;4.82;3.55;;;25.20;60.90;;;;;;5051338;28;20417;-60
2021/07/27 06:40:27;;;;;;;4.57;3.03;;;25.10;60.60;;;;;;5051788;28;20029;-60
2021/07/27 06:42:53;;;;;;;3.65;2.88;;;25.10;60.50;;;;;;5051208;28;20041;-60
2021/07/27 06:45:18;;;;;;;4.47;2.80;;;25.10;60.30;;;;;;5048551;28;20036;-60
2021/07/27 06:47:45;;;;;;;4.93;3.80;;;25.10;60.30;;;;;;5051496;28;20025;-60
2021/07/27 06:50:11;;;;;;;6.40;2.85;;;25.10;60.40;;;;;;5051449;28;20029;-60
2021/07/27 06:52:37;;;;;;;5.00;3.17;;;25.10;60.40;;;;;;5051507;28;20052;-60
2021/07/27 06:55:04;;;;;;;3.38;2.63;;;25.10;60.30;;;;;;5051088;28;20025;-60
2021/07/27 06:57:30;;;;;;;4.22;3.10;;;25.10;60.20;;;;;;5051440;28;20032;-60
2021/07/27 06:59:55;;;;;;;6.50;3.03;;;25.10;60.20;;;;;;5050281;28;20064;-60
2021/07/27 07:02:23;;;;;;;5.10;3.05;;;25.10;60.40;;;;;;5050314;28;20470;-60
2021/07/27 07:04:49;;;;;;;5.82;3.17;;;25.10;60.50;;;;;;5049352;28;20037;-60
2021/07/27 07:07:15;;;;;;;6.78;2.75;;;25.10;60.60;;;;;;5049975;28;20031;-60
2021/07/27 07:09:40;;;;;;;3.63;3.00;;;25.10;60.60;;;;;;5051419;28;20033;-60
2021/07/27 07:12:10;;;;;;;9.00;3.00;;;25.10;60.70;;;;;;5050045;28;20033;-60
2021/07/27 07:14:36;;;;;;;5.85;3.42;;;25.10;60.70;;;;;;5066106;28;20547;-60
2021/07/27 07:17:02;;;;;;;6.13;3.22;;;25.10;60.70;;;;;;5060907;28;20029;-60
2021/07/27 07:19:28;;;;;;;5.03;3.30;;;25.10;60.70;;;;;;5050524;28;20079;-60
2021/07/27 07:21:53;;;;;;;6.43;3.25;;;25.10;60.70;;;;;;5050919;28;20051;-60
2021/07/27 07:24:19;;;;;;;4.45;2.88;;;25.10;60.60;;;;;;5050289;28;20025;-60
2021/07/27 07:26:46;;;;;;;3.67;2.90;;;25.10;60.60;;;;;;5051618;28;20204;-60
2021/07/27 07:29:12;;;;;;;3.58;2.70;;;25.10;60.60;;;;;;5050350;28;20056;-60
2021/07/27 07:31:37;;;;;;;5.32;3.10;;;25.10;60.80;;;;;;5051529;28;20463;-60
2021/07/27 07:34:03;;;;;;;6.22;3.20;;;25.10;60.70;;;;;;5050493;28;20036;-60
2021/07/27 07:36:29;;;;;;;6.20;3.22;;;25.10;60.90;;;;;;5051668;28;20519;-60
2021/07/27 07:38:55;;;;;;;5.60;3.38;;;25.10;61.10;;;;;;5050124;28;20056;-60
2021/07/27 07:41:20;;;;;;;5.65;2.90;;;25.10;61.20;;;;;;5050778;28;20112;-60
2021/07/27 07:43:49;;;;;;;7.35;3.15;;;25.10;61.80;;;;;;5062264;28;20127;-60
2021/07/27 07:46:14;;;;;;;5.30;2.65;;;25.10;61.20;;;;;;5061161;28;20021;-60
2021/07/27 07:48:40;;;;;;;5.75;3.22;;;25.10;61.30;;;;;;5055302;28;20028;-61
2021/07/27 07:51:06;;;;;;;4.03;2.72;;;25.10;61.30;;;;;;5053781;28;20032;-60
2021/07/27 07:53:32;;;;;;;6.25;3.30;;;25.10;61.40;;;;;;5054674;28;20037;-60
2021/07/27 07:55:58;;;;;;;8.10;2.95;;;25.10;61.40;;;;;;5054183;28;20113;-60
2021/07/27 07:58:23;;;;;;;4.55;2.80;;;25.10;61.30;;;;;;5054381;28;20103;-60
2021/07/27 08:00:50;;;;;;;3.95;3.08;;;25.10;61.30;;;;;;5054043;28;20057;-60
2021/07/27 08:03:17;;;;;;;7.40;3.63;;;25.10;61.40;;;;;;5053032;28;20105;-60
2021/07/27 08:05:42;;;;;;;4.20;3.20;;;25.10;61.40;;;;;;5053874;28;20470;-60
2021/07/27 08:08:08;;;;;;;6.22;3.40;;;25.10;61.40;;;;;;5053591;28;20029;-60
2021/07/27 08:10:33;;;;;;;3.03;2.70;;;25.10;61.30;;;;;;5054220;28;20067;-60
2021/07/27 08:12:59;;;;;;;4.78;3.05;;;25.10;61.20;;;;;;5054300;28;20025;-60
2021/07/27 08:15:26;;;;;;;3.92;2.83;;;25.10;61.10;;;;;;5053197;28;20025;-60
2021/07/27 08:17:53;;;;;;;4.50;2.35;;;25.10;61.20;;;;;;5053877;28;20079;-60
2021/07/27 08:20:20;;;;;;;3.78;2.95;;;25.10;61.10;;;;;;5053112;28;20033;-60
2021/07/27 08:22:46;;;;;;;3.45;3.10;;;25.10;61.00;;;;;;5054567;28;20040;-60
2021/07/27 08:25:15;;;;;;;5.07;2.90;;;25.10;61.00;;;;;;5053597;28;20092;-60
2021/07/27 08:27:42;;;;;;;5.95;2.78;;;25.10;61.00;;;;;;5054550;28;20034;-60
2021/07/27 08:30:08;;;;;;;4.40;3.42;;;25.10;60.70;;;;;;5052072;28;20455;-60
2021/07/27 08:32:34;;;;;;;5.60;2.88;;;25.10;60.60;;;;;;5054103;28;20033;-60
2021/07/27 08:34:59;;;;;;;5.00;2.92;;;25.10;60.60;;;;;;5053234;28;20032;-60
2021/07/27 08:37:27;;;;;;;4.35;2.70;;;25.10;60.80;;;;;;5053925;28;20079;-60
2021/07/27 08:39:58;;;;;;;3.45;2.97;;;25.10;60.90;;;;;;5053759;28;20124;-60
2021/07/27 08:42:29;;;;;;;3.97;2.83;;;25.10;61.00;;;;;;5054389;28;20029;-60
2021/07/27 08:44:57;;;;;;;4.28;2.80;;;25.10;61.10;;;;;;5054512;28;20056;-60
2021/07/27 08:47:25;;;;;;;6.32;2.97;;;25.10;61.10;;;;;;5053047;28;20033;-60
2021/07/27 08:49:51;;;;;;;4.93;2.97;;;25.10;61.20;;;;;;5053130;28;20055;-60
2021/07/27 08:52:17;;;;;;;5.40;3.30;;;25.10;61.20;;;;;;5053178;28;20024;-60
2021/07/27 08:54:43;;;;;;;4.50;2.90;;;25.10;61.20;;;;;;5053833;28;20025;-60
2021/07/27 08:57:14;;;;;;;4.65;3.33;;;25.10;61.30;;;;;;5053270;28;20044;-60
2021/07/27 08:59:40;;;;;;;6.18;3.10;;;25.10;61.20;;;;;;5052888;28;20065;-60
2021/07/27 09:02:06;;;;;;;4.78;3.22;;;25.10;61.20;;;;;;5053355;28;20040;-60
2021/07/27 09:04:32;;;;;;;5.75;3.05;;;25.10;61.20;;;;;;5053551;28;20033;-61
2021/07/27 09:07:01;;;;;;;3.90;2.95;;;25.10;61.20;;;;;;5051487;28;20036;-60
2021/07/27 09:09:31;;;;;;;4.38;2.88;;;25.10;61.20;;;;;;5051913;28;20470;-60
2021/07/27 09:12:02;;;;;;;3.90;3.15;;;25.10;61.20;;;;;;5052762;28;20055;-60
2021/07/27 09:14:30;;;;;;;3.25;2.72;;;25.10;61.20;;;;;;5065639;28;20500;-60
2021/07/27 09:16:57;;;;;;;5.40;3.28;;;25.10;61.20;;;;;;5068985;28;20075;-60
2021/07/27 09:19:23;;;;;;;5.07;3.17;;;25.10;61.30;;;;;;5053246;28;20029;-60
2021/07/27 09:21:50;;;;;;;4.07;3.08;;;25.10;61.20;;;;;;5052962;28;20028;-60
2021/07/27 09:24:21;;;;;;;5.88;3.40;;;25.10;61.10;;;;;;5052681;28;20029;-60
2021/07/27 09:26:58;;;;;;;3.70;3.08;;;25.10;61.00;;;;;;5053274;28;20340;-60
2021/07/27 09:29:27;;;;;;;4.13;3.10;;;25.10;61.10;;;;;;5053022;28;20044;-60
2021/07/27 09:31:54;;;;;;;5.43;3.10;;;25.10;61.10;;;;;;5042952;28;20103;-60
2021/07/27 09:34:20;;;;;;;5.38;3.10;;;25.10;61.00;;;;;;5053007;28;20083;-60
2021/07/27 09:36:46;;;;;;;4.40;3.25;;;25.10;61.00;;;;;;5053401;28;20048;-59
2021/07/27 09:39:12;;;;;;;4.13;3.50;;;25.10;61.10;;;;;;5051561;28;20217;-60
2021/07/27 09:41:37;;;;;;;3.88;3.22;;;25.10;61.00;;;;;;5052927;28;20029;-60
2021/07/27 09:44:07;;;;;;;4.47;3.00;;;25.10;61.10;;;;;;5062451;28;20052;-60
2021/07/27 09:46:33;;;;;;;4.88;3.40;;;25.10;61.10;;;;;;5072843;28;20135;-60
2021/07/27 09:49:01;;;;;;;8.18;3.55;;;25.10;60.90;;;;;;5061985;28;20103;-50
2021/07/27 09:51:29;;;;;;;6.68;4.00;;;25.10;61.10;;;;;;5052492;28;20474;-58
2021/07/27 09:53:54;;;;;;;4.00;3.05;;;25.10;61.10;;;;;;5052314;28;20025;-58
2021/07/27 09:56:20;;;;;;;4.78;3.15;;;25.10;61.30;;;;;;5052097;28;20051;-58
2021/07/27 09:58:46;;;;;;;3.92;3.40;;;25.10;61.00;;;;;;5052136;28;20486;-58
2021/07/27 10:01:19;;;;;;;4.45;3.40;;;25.10;61.00;;;;;;5051835;28;20390;-58
2021/07/27 10:03:49;;;;;;;3.42;3.00;;;25.10;60.80;;;;;;5052750;28;20390;-58
2021/07/27 10:06:24;;;;;;;4.30;3.53;;;25.10;60.90;;;;;;5050985;28;20580;-58
2021/07/27 10:08:54;;;;;;;5.90;3.45;;;25.10;60.80;;;;;;5052217;28;20381;-58
2021/07/27 10:11:21;;;;;;;6.15;3.78;;;25.10;60.70;;;;;;5050352;28;20056;-58
2021/07/27 10:13:49;;;;;;;3.58;3.00;;;25.10;60.70;;;;;;5060547;28;20025;-58
2021/07/27 10:16:24;;;;;;;5.22;3.60;;;25.10;60.60;;;;;;5071530;28;20047;-57
2021/07/27 10:18:50;;;;;;;5.20;3.40;;;25.10;60.50;;;;;;5052407;28;20100;-58
2021/07/27 10:21:23;;;;;;;6.28;3.45;;;25.20;60.60;;;;;;5051414;28;20558;-58
2021/07/27 10:24:13;;;;;;;3.67;2.95;;;25.20;61.00;;;;;;5052021;28;20424;-57
2021/07/27 10:26:39;;;;;;;5.25;3.20;;;25.30;60.70;;;;;;5050178;28;20567;-58
2021/07/27 10:29:05;;;;;;;4.10;3.25;;;25.30;60.60;;;;;;5050725;28;20036;-58
2021/07/27 10:31:36;;;;;;;4.03;2.97;;;25.30;60.70;;;;;;5052081;28;20033;-58
2021/07/27 10:34:04;;;;;;;4.25;3.45;;;25.30;60.80;;;;;;5051187;28;20039;-58
2021/07/27 10:36:32;;;;;;;4.03;2.80;;;25.30;60.90;;;;;;5051752;28;20119;-58
2021/07/27 10:39:08;;;;;;;3.45;2.97;;;25.30;60.90;;;;;;5050930;28;20029;-57
2021/07/27 10:41:36;;;;;;;4.15;3.17;;;25.20;61.30;;;;;;5051727;28;20128;-57
2021/07/27 10:44:10;;;;;;;6.10;2.97;;;25.30;61.60;;;;;;5051162;28;20029;-58
2021/07/27 10:46:38;;;;;;;7.25;3.50;;;25.30;61.40;;;;;;5071781;28;20033;-57
2021/07/27 10:49:04;;;;;;;5.28;3.40;;;25.30;61.90;;;;;;5061545;28;20036;-58
2021/07/27 10:51:35;;;;;;;5.90;3.35;;;25.30;61.70;;;;;;5051971;28;20082;-58
2021/07/27 10:54:01;;;;;;;7.35;3.40;;;25.30;62.00;;;;;;5050586;28;20382;-57
2021/07/27 10:56:31;;;;;;;4.90;3.10;;;25.30;62.00;;;;;;5051448;28;20053;-56
2021/07/27 10:58:58;;;;;;;6.15;4.22;;;25.30;62.30;;;;;;5050747;28;20524;-57
2021/07/27 11:01:32;;;;;;;4.78;3.70;;;25.30;62.30;;;;;;5051623;28;20043;-56
2021/07/27 11:04:10;;;;;;;4.70;3.20;;;25.20;62.20;;;;;;5051257;28;20036;-57
2021/07/27 11:06:37;;;;;;;5.05;3.10;;;25.20;62.30;;;;;;5051256;28;20170;-57
2021/07/27 11:09:03;;;;;;;5.35;3.28;;;25.20;62.40;;;;;;5049119;28;20033;-57
2021/07/27 11:11:29;;;;;;;6.22;3.30;;;25.20;62.40;;;;;;5051542;28;20499;-57
2021/07/27 11:13:54;;;;;;;4.63;3.33;;;25.20;62.30;;;;;;5057225;28;20039;-57
2021/07/27 11:16:20;;;;;;;4.68;3.70;;;25.20;62.30;;;;;;5052368;28;20458;-56
2021/07/27 11:18:46;;;;;;;4.00;3.05;;;25.20;62.20;;;;;;5054960;28;20036;-56
2021/07/27 11:21:12;;;;;;;5.13;3.22;;;25.20;62.10;;;;;;5054298;28;20036;-56
2021/07/27 11:23:40;;;;;;;5.25;3.28;;;25.20;62.20;;;;;;5054766;28;20363;-57
2021/07/27 11:26:06;;;;;;;5.05;3.13;;;25.20;62.20;;;;;;5053842;28;20048;-56
2021/07/27 11:28:34;;;;;;;4.32;3.13;;;25.20;62.10;;;;;;5054999;28;20095;-57
2021/07/27 11:31:00;;;;;;;4.03;2.88;;;25.20;62.00;;;;;;5054876;28;20120;-57
2021/07/27 11:33:26;;;;;;;5.57;3.03;;;25.20;62.10;;;;;;5055459;28;20131;-55
2021/07/27 11:35:53;;;;;;;4.70;3.08;;;25.20;62.00;;;;;;5055223;28;20490;-56
2021/07/27 11:38:33;;;;;;;4.55;3.08;;;25.20;62.00;;;;;;5052351;28;20629;-55
2021/07/27 11:41:07;;;;;;;3.90;2.78;;;25.20;62.00;;;;;;5054812;28;20203;-57
2021/07/27 11:43:35;;;;;;;5.55;3.03;;;25.20;62.00;;;;;;5061273;28;20381;-56
2021/07/27 11:46:12;;;;;;;4.25;2.63;;;25.20;62.10;;;;;;5066017;28;20021;-57
2021/07/27 11:48:39;;;;;;;4.43;3.40;;;25.20;62.00;;;;;;5054843;28;20029;-57
2021/07/27 11:51:05;;;;;;;5.60;3.22;;;25.20;62.00;;;;;;5054201;28;20067;-56
2021/07/27 11:53:34;;;;;;;4.38;3.20;;;25.20;62.50;;;;;;5053223;28;20028;-56
2021/07/27 11:56:16;;;;;;;4.30;3.00;;;25.20;61.90;;;;;;5054451;28;20374;-57
2021/07/27 11:58:42;;;;;;;5.40;3.20;;;25.20;61.90;;;;;;5053957;28;20025;-56
2021/07/27 12:01:08;;;;;;;3.55;2.60;;;25.20;61.90;;;;;;5052204;28;20458;-57
2021/07/27 12:03:34;;;;;;;4.20;2.60;;;25.20;61.90;;;;;;5054433;28;20037;-56
2021/07/27 12:06:11;;;;;;;3.58;2.95;;;25.20;61.90;;;;;;5054621;28;20036;-57
2021/07/27 12:08:37;;;;;;;5.72;3.30;;;25.20;61.80;;;;;;5054572;28;20032;-56
2021/07/27 12:11:03;;;;;;;3.90;3.08;;;25.20;61.90;;;;;;5053826;28;20140;-57
2021/07/27 12:13:29;;;;;;;5.38;3.08;;;25.20;61.80;;;;;;5058392;28;20460;-56
2021/07/27 12:15:55;;;;;;;6.20;3.40;;;25.20;62.50;;;;;;5054577;28;20058;-55
2021/07/27 12:18:21;;;;;;;4.10;2.80;;;25.20;61.90;;;;;;5053375;28;20022;-57
2021/07/27 12:20:47;;;;;;;4.50;3.45;;;25.20;61.80;;;;;;5053256;28;20029;-57
2021/07/27 12:23:17;;;;;;;3.95;2.90;;;25.20;61.80;;;;;;5052665;28;20146;-56
2021/07/27 12:25:43;;;;;;;4.32;3.05;;;25.20;61.80;;;;;;5054490;28;20074;-56
2021/07/27 12:28:09;;;;;;;5.60;3.10;;;25.20;61.90;;;;;;5052843;28;20440;-56
2021/07/27 12:30:34;;;;;;;6.30;3.17;;;25.20;61.80;;;;;;5054534;28;20039;-56
2021/07/27 12:33:00;;;;;;;6.72;3.90;;;25.20;61.90;;;;;;5053880;28;20108;-56
2021/07/27 12:35:25;;;;;;;3.78;3.10;;;25.20;61.90;;;;;;5069168;28;20028;-56
2021/07/27 12:37:51;;;;;;;3.83;3.20;;;25.20;61.90;;;;;;5056218;28;20385;-56
2021/07/27 12:40:17;;;;;;;4.47;3.42;;;25.20;61.80;;;;;;5043465;28;20037;-56
2021/07/27 12:42:42;;;;;;;4.18;3.20;;;25.20;61.80;;;;;;5053920;28;20029;-56
2021/07/27 12:45:08;;;;;;;3.97;2.75;;;25.20;61.90;;;;;;5072213;28;20200;-57
2021/07/27 12:47:36;;;;;;;4.13;3.00;;;25.20;61.80;;;;;;5073972;28;20032;-56
2021/07/27 12:50:03;;;;;;;5.05;2.92;;;25.20;61.90;;;;;;5073497;28;20036;-57
2021/07/27 12:52:29;;;;;;;4.22;2.80;;;25.20;61.80;;;;;;5074201;28;20044;-56
2021/07/27 12:54:54;;;;;;;4.68;3.08;;;25.20;61.80;;;;;;5054713;28;20021;-57
2021/07/27 12:57:20;;;;;;;3.88;3.20;;;25.20;61.80;;;;;;5052970;28;20481;-57
2021/07/27 12:59:46;;;;;;;3.75;2.70;;;25.20;61.80;;;;;;5052708;28;20052;-57
2021/07/27 13:02:11;;;;;;;3.72;2.83;;;25.20;61.60;;;;;;5052071;28;20032;-57
2021/07/27 13:04:37;;;;;;;4.68;3.20;;;25.20;61.50;;;;;;5053682;28;20029;-57
2021/07/27 13:07:03;;;;;;;4.22;3.00;;;25.30;62.30;;;;;;5052887;28;20025;-57
2021/07/27 13:09:29;;;;;;;6.75;3.28;;;25.30;61.70;;;;;;5053396;28;20029;-57
2021/07/27 13:11:54;;;;;;;3.78;2.97;;;25.30;61.80;;;;;;5052799;28;20029;-57